Tagbilaran, Philippines

10:02 AM PHT on August 01, 2014 (GMT +0800)
Mactan-Cebu International (RPVM) Elev 30 ft | 10.31 °N, 123.98 °E | Change Station

Current weather conditions updated 1 hour ago

Mostly Cloudy
Mostly Cloudy
86 °F
Feels Like 99 °F
N
9
Wind Variable Wind from SSW

Today is forecast to be nearly the same temperature as yesterday. Scattered thunderstorms possible.

Today
High -- | Low -- °F
--% Chance of Precip.
Yesterday
High -- | Low -- °F
Precip. -- in
5:34 AM 6:07 PM
Waxing Crescent, 22% visible
Pressure 29.80 in
Visibility 6.2 miles
Clouds Few 2000 ft
Mostly Cloudy 30000 ft
Heat Index 99 °F
Dew Point 79 °F
Humidity 79%
Rainfall 0.00 in
Snow Depth Not available.
UV 5 out of 12
Pollen Not available.
Air Quality Not available.
Flu Activity Not available.
METAR RPVM 010100Z 21008KT 9999 FEW020 BKN300 30/26 Q1009 RMK A2980

More Conditions Fewer Conditions

Pressure 29.80 in
Visibility 6.2 miles
Clouds Few 2000 ft
Mostly Cloudy 30000 ft
Heat Index 99 °F
Dew Point 79 °F
Humidity 79%
Rainfall 0.00 in
Snow Depth Not available.
UV 5 out of 12
Pollen Not available.
Air Quality Not available.
Flu Activity Not available.
METAR RPVM 010100Z 21008KT 9999 FEW020 BKN300 30/26 Q1009 RMK A2980

More Conditions Fewer Conditions

10-Day Weather Forecast

Almanac

Astronomy

Aug. 01, 2014 Rise Set
Actual Time 5:34 AM PHT 6:07 PM PHT
Civil Twilight 5:12 AM PHT 6:29 PM PHT
Nautical Twilight 4:46 AM PHT 6:55 PM PHT
Astronomical Twilight 4:20 AM PHT 7:21 PM PHT
Moon 9:23 AM PHT 9:38 PM PHT
Length of Visible Light 13h 16m
Length of Day
12h 32m
Tomorrow will be 0m 24s shorter.
Waxing Crescent, 22% of the Moon is Illuminated
Jul 31
Waxing Crescent
Aug 3
First Quarter
Aug 10
Full
Aug 17
Last Quarter
Aug 25
New

Yesterday's Extremes

Country Highs Country Lows

Community

WunderPhotos

Upload Photos

1,739,500 photos uploaded!

Nearby

Snow Depth

Not available.

Earthquake Activity

City Distance Mag. Time & Date
No recent earthquake activity has been reported nearby.
Minimum magnitude displayed is 2.5.

Coastal Water Temperatures

Place Temperature
No Stations Reporting

Nearby Weather Stations

There are no personal weather stations in this area.